Time;durP1;ratioP1;P1;durP2;ratioP2;P2;SDS_P1;SDS_P2;PMS_P1;PMS_P2;Temp;Humidity;BMP_temperature;BMP_pressure;BME280_temperature;BME280_humidity;BME280_pressure;Samples;Min_cycle;Max_cycle;Signal;HPM_P1;HPM_P2
2021/07/24 04:01:08;;;;;;;21.60;19.47;;;20.90;99.90;;;;;;5743891;23;20481;-67
2021/07/24 04:03:35;;;;;;;20.93;18.93;;;21.00;99.90;;;;;;5013983;28;20449;-68
2021/07/24 04:06:02;;;;;;;21.70;19.60;;;21.00;99.90;;;;;;5013933;28;20448;-69
2021/07/24 04:08:30;;;;;;;22.13;18.30;;;21.10;99.90;;;;;;5013908;28;20577;-69
2021/07/24 04:10:57;;;;;;;20.87;19.00;;;21.10;99.90;;;;;;5013848;28;20500;-68
2021/07/24 04:13:24;;;;;;;20.90;18.80;;;21.20;99.90;;;;;;5013683;28;20872;-68
2021/07/24 04:15:51;;;;;;;21.30;19.07;;;21.20;99.90;;;;;;5014088;28;20480;-68
2021/07/24 04:18:23;;;;;;;22.07;20.07;;;21.30;99.90;;;;;;5013924;28;20460;-68
2021/07/24 04:20:50;;;;;;;19.97;18.10;;;21.40;99.90;;;;;;5013816;28;20484;-68
2021/07/24 04:23:17;;;;;;;22.53;20.37;;;21.40;99.90;;;;;;5013753;28;20456;-69
2021/07/24 04:25:43;;;;;;;23.07;20.87;;;21.50;99.90;;;;;;5013818;28;20464;-68
2021/07/24 04:28:10;;;;;;;24.10;21.60;;;21.50;99.90;;;;;;5013829;28;20456;-68
2021/07/24 04:30:37;;;;;;;21.33;19.20;;;21.60;99.90;;;;;;5013259;28;20814;-68
2021/07/24 04:33:04;;;;;;;22.20;20.13;;;21.50;99.90;;;;;;5013281;28;20999;-68
2021/07/24 04:35:32;;;;;;;19.40;17.63;;;21.50;99.90;;;;;;5013726;28;20480;-68
2021/07/24 04:37:58;;;;;;;20.67;18.77;;;21.50;99.90;;;;;;5013834;28;20448;-68
2021/07/24 04:40:25;;;;;;;20.47;18.67;;;21.50;99.90;;;;;;5016991;28;20559;-68
2021/07/24 04:42:52;;;;;;;20.17;18.07;;;21.50;99.90;;;;;;5017596;28;20479;-68
2021/07/24 04:45:19;;;;;;;20.23;18.37;;;21.50;99.90;;;;;;5017645;28;20464;-68
2021/07/24 04:47:45;;;;;;;19.43;17.80;;;21.50;99.90;;;;;;5017305;28;20872;-68
2021/07/24 04:50:13;;;;;;;19.13;17.43;;;21.60;99.90;;;;;;5017253;28;20456;-68
2021/07/24 04:52:41;;;;;;;21.17;19.17;;;21.60;99.90;;;;;;5017400;28;20476;-68
2021/07/24 04:55:09;;;;;;;21.43;19.13;;;21.60;99.90;;;;;;5017114;28;20460;-68
2021/07/24 04:57:36;;;;;;;20.23;18.23;;;21.70;99.90;;;;;;5017211;28;20463;-68
2021/07/24 05:00:03;;;;;;;19.50;17.50;;;21.60;99.90;;;;;;5022243;28;20456;-68
2021/07/24 05:02:31;;;;;;;21.10;19.00;;;21.70;99.90;;;;;;5017134;28;20530;-69
2021/07/24 05:04:58;;;;;;;20.57;18.77;;;21.70;99.90;;;;;;5016971;28;20461;-68
2021/07/24 05:07:27;;;;;;;21.23;18.90;;;21.70;99.90;;;;;;5016822;28;20452;-68
2021/07/24 05:09:55;;;;;;;20.60;18.73;;;21.70;99.90;;;;;;5016721;28;20452;-68
2021/07/24 05:12:21;;;;;;;20.33;18.43;;;21.80;99.90;;;;;;5017429;28;20795;-68
2021/07/24 05:14:48;;;;;;;20.10;18.30;;;21.80;99.90;;;;;;5016753;28;20873;-68
2021/07/24 05:17:16;;;;;;;20.73;18.97;;;21.90;99.90;;;;;;5016838;28;20464;-68
2021/07/24 05:19:44;;;;;;;21.13;19.00;;;21.90;99.90;;;;;;5016827;28;20817;-68
2021/07/24 05:22:12;;;;;;;19.40;17.43;;;21.90;99.90;;;;;;5016654;28;20469;-68
2021/07/24 05:24:43;;;;;;;20.13;18.20;;;21.90;99.90;;;;;;5016895;28;20453;-68
2021/07/24 05:27:12;;;;;;;18.77;17.07;;;22.00;99.90;;;;;;5016634;28;20437;-68
2021/07/24 05:29:39;;;;;;;19.30;17.50;;;22.00;99.90;;;;;;5016350;28;20511;-68
2021/07/24 05:32:07;;;;;;;21.07;18.83;;;22.10;99.90;;;;;;5016318;28;20477;-68
2021/07/24 05:34:33;;;;;;;18.53;16.80;;;22.20;99.90;;;;;;5016224;28;20463;-68
2021/07/24 05:37:00;;;;;;;20.93;18.73;;;22.20;99.90;;;;;;5016513;28;20487;-68
2021/07/24 05:39:27;;;;;;;20.03;18.03;;;22.30;99.90;;;;;;5016663;28;20452;-68
2021/07/24 05:41:54;;;;;;;20.50;18.17;;;22.40;99.90;;;;;;5016242;28;20473;-68
2021/07/24 05:44:23;;;;;;;22.37;20.23;;;22.40;99.90;;;;;;5016651;28;20480;-68
2021/07/24 05:46:50;;;;;;;20.13;18.23;;;22.50;99.90;;;;;;5016373;28;20955;-68
2021/07/24 05:49:16;;;;;;;20.93;19.00;;;22.60;99.90;;;;;;5016272;28;20460;-68
2021/07/24 05:51:43;;;;;;;22.33;18.93;;;22.70;99.90;;;;;;5015011;28;20488;-68
2021/07/24 05:54:11;;;;;;;20.70;18.90;;;22.80;99.90;;;;;;5016560;28;20457;-68
2021/07/24 05:56:38;;;;;;;21.93;19.93;;;22.90;99.90;;;;;;5016067;28;20544;-68
2021/07/24 05:59:05;;;;;;;21.57;19.57;;;23.00;99.90;;;;;;5015882;28;20453;-67
2021/07/24 06:01:33;;;;;;;20.80;18.90;;;23.10;99.90;;;;;;5015395;28;21006;-67
2021/07/24 06:04:00;;;;;;;21.73;19.60;;;23.20;99.90;;;;;;5015773;28;20839;-67
2021/07/24 06:06:27;;;;;;;21.17;19.23;;;23.30;99.90;;;;;;5015416;28;20799;-67
2021/07/24 06:08:53;;;;;;;21.40;19.20;;;23.30;99.90;;;;;;5015830;28;20460;-66
2021/07/24 06:11:20;;;;;;;24.80;22.33;;;23.30;99.90;;;;;;5015449;28;20473;-67
2021/07/24 06:13:47;;;;;;;22.20;19.80;;;23.20;99.90;;;;;;5015720;28;20453;-67
2021/07/24 06:16:13;;;;;;;22.73;20.20;;;23.10;99.90;;;;;;5015195;28;20971;-67
2021/07/24 06:18:41;;;;;;;22.33;20.07;;;23.00;99.90;;;;;;5015459;28;20456;-67
2021/07/24 06:21:14;;;;;;;21.33;19.13;;;22.90;99.90;;;;;;5015487;28;20484;-66
2021/07/24 06:23:41;;;;;;;21.40;19.43;;;22.90;99.90;;;;;;5015895;28;20905;-66
2021/07/24 06:26:08;;;;;;;21.50;19.50;;;22.80;99.90;;;;;;5015777;28;20453;-66
2021/07/24 06:28:34;;;;;;;20.60;18.80;;;22.80;99.90;;;;;;5015489;28;20809;-66
2021/07/24 06:31:02;;;;;;;22.20;20.20;;;22.80;99.90;;;;;;5015319;28;20480;-66
2021/07/24 06:33:28;;;;;;;24.97;20.60;;;22.80;99.90;;;;;;5015246;28;20497;-66
2021/07/24 06:35:59;;;;;;;22.50;20.30;;;22.80;99.90;;;;;;5015715;28;20437;-66
2021/07/24 06:38:26;;;;;;;22.63;20.33;;;22.80;99.90;;;;;;5015280;28;20437;-67
2021/07/24 06:40:52;;;;;;;23.17;20.87;;;22.80;99.90;;;;;;5014768;28;20988;-67
2021/07/24 06:43:19;;;;;;;23.37;21.27;;;22.70;99.90;;;;;;5014706;28;20832;-66
2021/07/24 06:45:46;;;;;;;23.03;20.93;;;22.70;99.90;;;;;;5015224;28;20445;-66
2021/07/24 06:48:12;;;;;;;22.77;20.43;;;22.80;99.90;;;;;;5014916;28;20447;-66
2021/07/24 06:50:39;;;;;;;23.83;21.07;;;22.80;99.90;;;;;;5014759;28;20865;-66
2021/07/24 06:53:07;;;;;;;23.90;20.77;;;22.80;99.90;;;;;;5014819;28;20480;-66
2021/07/24 06:55:34;;;;;;;23.33;20.87;;;23.00;99.90;;;;;;5015450;28;20845;-66
2021/07/24 06:58:02;;;;;;;23.60;21.27;;;23.00;99.90;;;;;;5018287;28;20457;-66
2021/07/24 07:00:29;;;;;;;25.10;22.70;;;23.20;99.90;;;;;;5014520;28;20453;-67
2021/07/24 07:02:57;;;;;;;23.33;21.03;;;23.30;99.90;;;;;;5015212;28;20441;-66
2021/07/24 07:05:24;;;;;;;21.53;19.43;;;23.50;99.90;;;;;;5015876;28;20452;-68
2021/07/24 07:07:51;;;;;;;22.97;20.93;;;23.40;99.90;;;;;;5014550;28;20457;-66
2021/07/24 07:10:19;;;;;;;25.40;22.27;;;23.40;99.90;;;;;;5014408;28;20460;-66
2021/07/24 07:12:46;;;;;;;21.20;19.03;;;23.60;99.90;;;;;;5014685;28;20474;-66
2021/07/24 07:15:12;;;;;;;21.70;19.40;;;23.90;99.90;;;;;;5014883;28;20489;-67
2021/07/24 07:17:39;;;;;;;20.63;18.77;;;24.30;99.90;;;;;;5014587;28;20445;-67
2021/07/24 07:20:07;;;;;;;21.97;20.07;;;24.60;99.90;;;;;;5014533;28;20464;-67
2021/07/24 07:22:34;;;;;;;19.83;18.03;;;24.80;99.90;;;;;;5014413;28;20519;-67
2021/07/24 07:25:01;;;;;;;22.30;20.10;;;24.90;99.90;;;;;;5014336;28;20940;-68
2021/07/24 07:27:29;;;;;;;23.77;21.27;;;24.90;99.90;;;;;;5014667;28;20511;-68
2021/07/24 07:29:55;;;;;;;22.83;20.30;;;24.60;99.90;;;;;;5014728;28;20460;-68
2021/07/24 07:32:22;;;;;;;23.80;21.20;;;24.60;99.90;;;;;;5014213;28;20480;-68
2021/07/24 07:34:49;;;;;;;22.87;20.77;;;24.50;99.90;;;;;;5014482;28;20815;-65
2021/07/24 07:37:15;;;;;;;23.67;21.30;;;24.40;99.90;;;;;;5014361;28;20820;-65
2021/07/24 07:39:42;;;;;;;25.50;22.90;;;24.30;99.90;;;;;;5014276;28;20464;-64
2021/07/24 07:42:09;;;;;;;24.87;22.33;;;24.20;99.90;;;;;;5014303;28;20476;-65
2021/07/24 07:44:38;;;;;;;23.87;21.20;;;24.00;99.90;;;;;;5014264;28;20464;-65
2021/07/24 07:47:05;;;;;;;23.10;20.63;;;23.90;99.90;;;;;;5014427;28;20457;-65
2021/07/24 07:49:32;;;;;;;24.30;21.90;;;23.70;99.90;;;;;;5014554;28;20459;-65
2021/07/24 07:51:59;;;;;;;22.00;19.70;;;23.60;99.90;;;;;;5014974;28;20480;-68
2021/07/24 07:54:30;;;;;;;24.53;22.10;;;23.60;99.90;;;;;;5015516;28;20457;-66
2021/07/24 07:56:57;;;;;;;22.77;20.57;;;23.70;99.90;;;;;;5015976;28;20437;-66
2021/07/24 07:59:23;;;;;;;26.03;22.97;;;23.70;99.90;;;;;;5014381;28;20457;-66
2021/07/24 08:01:52;;;;;;;25.67;23.17;;;23.70;99.90;;;;;;5013871;28;21067;-65
2021/07/24 08:04:19;;;;;;;26.27;23.47;;;23.70;99.90;;;;;;5014349;28;20499;-65
2021/07/24 08:06:45;;;;;;;23.10;20.90;;;23.70;99.90;;;;;;5014264;28;20464;-63
2021/07/24 08:09:12;;;;;;;22.20;20.10;;;23.60;99.90;;;;;;5014015;28;20444;-63
2021/07/24 08:11:39;;;;;;;21.67;19.57;;;23.50;99.90;;;;;;5014060;28;20526;-64
2021/07/24 08:14:05;;;;;;;25.77;19.50;;;23.30;99.90;;;;;;5015470;28;20480;-64
2021/07/24 08:16:32;;;;;;;21.60;19.50;;;23.20;99.90;;;;;;5017855;28;20457;-63
2021/07/24 08:19:00;;;;;;;21.10;19.00;;;23.20;99.90;;;;;;5017784;28;20452;-63
2021/07/24 08:21:27;;;;;;;21.33;19.07;;;23.10;99.90;;;;;;5017666;28;20476;-64
2021/07/24 08:23:53;;;;;;;22.70;19.70;;;23.10;99.90;;;;;;5017675;28;20452;-64
2021/07/24 08:26:20;;;;;;;20.10;18.20;;;23.10;99.90;;;;;;5017773;28;20858;-63
2021/07/24 08:28:47;;;;;;;19.83;17.57;;;23.10;99.90;;;;;;5017805;28;20452;-64
2021/07/24 08:31:15;;;;;;;22.03;18.43;;;23.20;99.90;;;;;;5017488;28;20484;-63
2021/07/24 08:33:42;;;;;;;20.77;18.83;;;23.20;99.90;;;;;;5017484;28;20512;-63
2021/07/24 08:36:10;;;;;;;20.57;18.50;;;23.30;99.90;;;;;;5017405;28;20479;-63
2021/07/24 08:38:37;;;;;;;24.27;18.17;;;23.30;99.90;;;;;;5017121;28;20994;-63
2021/07/24 08:41:05;;;;;;;19.30;17.37;;;23.20;99.90;;;;;;5017365;28;20477;-65
2021/07/24 08:43:31;;;;;;;21.10;19.13;;;23.20;99.90;;;;;;5018214;28;20453;-64
2021/07/24 08:45:58;;;;;;;19.53;17.70;;;23.30;99.90;;;;;;5017377;28;20452;-64
2021/07/24 08:48:25;;;;;;;21.60;17.23;;;23.40;99.90;;;;;;5018174;28;20539;-64
2021/07/24 08:50:55;;;;;;;19.73;17.80;;;23.60;99.90;;;;;;5017330;28;20477;-64
2021/07/24 08:53:26;;;;;;;22.53;20.20;;;23.80;99.90;;;;;;5017846;28;20983;-64
2021/07/24 08:56:06;;;;;;;19.90;18.10;;;24.00;99.90;;;;;;5018922;28;20468;-64
2021/07/24 08:58:35;;;;;;;20.33;18.40;;;24.20;99.90;;;;;;5017060;28;20441;-64
2021/07/24 09:01:02;;;;;;;18.90;17.20;;;24.60;99.90;;;;;;5016527;28;20484;-64
2021/07/24 09:03:32;;;;;;;18.83;17.10;;;25.00;99.90;;;;;;5017046;28;20444;-64
2021/07/24 09:06:00;;;;;;;17.10;15.53;;;25.50;99.90;;;;;;5016947;28;20499;-64
2021/07/24 09:08:28;;;;;;;18.50;16.60;;;26.00;99.90;;;;;;5016825;28;20460;-64
2021/07/24 09:10:57;;;;;;;19.43;16.27;;;26.50;99.90;;;;;;5016756;28;20472;-64
2021/07/24 09:13:25;;;;;;;18.30;16.60;;;26.70;99.90;;;;;;5016380;28;20476;-64
2021/07/24 09:15:54;;;;;;;18.63;15.63;;;27.00;99.90;;;;;;5017232;28;20452;-64
2021/07/24 09:18:21;;;;;;;17.70;16.20;;;27.40;99.90;;;;;;5016626;28;20928;-64
2021/07/24 09:20:47;;;;;;;17.20;15.53;;;27.80;99.90;;;;;;5016545;28;20481;-64
2021/07/24 09:23:31;;;;;;;15.90;14.60;;;28.40;99.90;;;;;;5016763;28;20449;-64
2021/07/24 09:25:58;;;;;;;15.30;13.73;;;29.30;99.90;;;;;;5015394;28;20528;-64
2021/07/24 09:28:25;;;;;;;14.30;13.00;;;30.00;99.90;;;;;;5016199;28;20457;-64
2021/07/24 09:30:52;;;;;;;13.60;12.50;;;30.60;99.90;;;;;;5016821;28;20567;-64
2021/07/24 09:33:20;;;;;;;13.40;12.20;;;31.20;99.90;;;;;;5016563;28;20487;-65
2021/07/24 09:35:50;;;;;;;12.67;11.70;;;31.90;97.70;;;;;;5016463;28;20457;-64
2021/07/24 09:38:28;;;;;;;12.60;11.60;;;32.20;97.20;;;;;;5016585;28;20445;-64
2021/07/24 09:40:57;;;;;;;13.70;12.50;;;32.60;94.60;;;;;;5016579;28;20810;-64
2021/07/24 09:43:34;;;;;;;12.77;11.80;;;32.50;91.80;;;;;;5015923;28;20969;-64
2021/07/24 09:46:17;;;;;;;13.63;12.53;;;32.50;92.60;;;;;;5016610;28;20437;-64
2021/07/24 09:48:45;;;;;;;14.30;12.90;;;33.00;92.00;;;;;;5016153;28;20456;-64
2021/07/24 09:51:12;;;;;;;13.67;12.57;;;33.30;91.90;;;;;;5015963;28;21022;-64
2021/07/24 09:53:42;;;;;;;13.40;12.30;;;33.50;90.20;;;;;;5016091;28;20835;-64
2021/07/24 09:56:14;;;;;;;13.97;12.77;;;33.60;88.10;;;;;;5016149;28;20456;-64
2021/07/24 09:58:41;;;;;;;13.20;11.43;;;33.60;87.30;;;;;;5016156;28;20441;-64
2021/07/24 10:01:09;;;;;;;12.53;11.53;;;33.60;85.50;;;;;;5015797;28;20480;-65
2021/07/24 10:03:38;;;;;;;13.33;12.10;;;33.90;86.60;;;;;;5016074;28;20459;-64
2021/07/24 10:06:11;;;;;;;14.00;12.80;;;34.00;83.20;;;;;;5015912;28;20465;-64
2021/07/24 10:08:41;;;;;;;14.13;13.03;;;34.00;83.60;;;;;;5015651;28;20959;-64
2021/07/24 10:11:08;;;;;;;18.13;13.03;;;34.20;82.60;;;;;;5015897;28;20473;-64
2021/07/24 10:13:35;;;;;;;15.37;13.93;;;34.30;82.60;;;;;;5015538;28;20480;-64
2021/07/24 10:16:02;;;;;;;14.07;12.93;;;34.10;83.30;;;;;;5016467;28;20502;-64
2021/07/24 10:18:29;;;;;;;15.03;13.83;;;34.50;82.50;;;;;;5015623;28;20456;-64
2021/07/24 10:20:55;;;;;;;15.43;14.00;;;34.90;77.40;;;;;;5015392;28;20476;-65
2021/07/24 10:23:23;;;;;;;14.20;13.00;;;34.90;76.80;;;;;;5015784;28;20455;-64
2021/07/24 10:25:55;;;;;;;14.50;13.13;;;34.00;77.80;;;;;;5015498;28;20457;-65
2021/07/24 10:28:27;;;;;;;14.33;13.00;;;32.70;80.00;;;;;;5015433;28;20441;-64
2021/07/24 10:30:56;;;;;;;15.83;14.33;;;31.70;83.60;;;;;;5015084;28;20994;-64
2021/07/24 10:33:24;;;;;;;15.90;14.50;;;31.30;86.90;;;;;;5015377;28;20477;-64
2021/07/24 10:36:09;;;;;;;14.80;13.50;;;30.70;89.10;;;;;;5015168;28;20454;-64
2021/07/24 10:38:36;;;;;;;15.60;14.10;;;30.40;90.90;;;;;;5015318;28;20445;-64
2021/07/24 10:41:36;;;;;;;14.10;12.90;;;30.80;91.40;;;;;;5015122;28;20492;-64
2021/07/24 10:44:05;;;;;;;13.80;12.40;;;31.60;87.90;;;;;;5015321;28;20485;-64
2021/07/24 10:47:09;;;;;;;14.43;13.03;;;32.30;87.30;;;;;;5014958;28;20462;-64
2021/07/24 10:49:58;;;;;;;14.90;13.50;;;31.80;85.40;;;;;;5015160;28;20468;-64
2021/07/24 10:52:25;;;;;;;13.80;12.33;;;31.50;86.80;;;;;;5018180;28;20472;-64
2021/07/24 10:55:13;;;;;;;12.87;11.70;;;31.50;85.30;;;;;;5015268;28;20476;-64
2021/07/24 10:58:04;;;;;;;12.50;11.40;;;31.50;84.30;;;;;;5014938;28;20444;-65
2021/07/24 11:00:32;;;;;;;14.63;13.33;;;31.80;85.80;;;;;;5014745;28;20437;-65
2021/07/24 11:02:59;;;;;;;13.53;12.33;;;32.30;86.80;;;;;;5014795;28;20436;-64
2021/07/24 11:05:27;;;;;;;13.17;11.80;;;33.20;84.90;;;;;;5014899;28;20548;-64
2021/07/24 11:07:54;;;;;;;12.87;11.70;;;33.30;80.40;;;;;;5014801;28;20437;-64
2021/07/24 11:10:21;;;;;;;12.33;11.20;;;33.20;80.90;;;;;;5014455;28;20452;-64
2021/07/24 11:12:48;;;;;;;11.93;10.93;;;32.90;78.50;;;;;;5014579;28;20457;-64
2021/07/24 11:15:20;;;;;;;11.90;10.70;;;32.60;77.80;;;;;;5014692;28;20484;-64
2021/07/24 11:18:22;;;;;;;12.73;11.63;;;32.90;79.30;;;;;;5014470;28;20413;-64
2021/07/24 11:20:50;;;;;;;12.20;11.10;;;32.60;78.10;;;;;;5014314;28;20472;-64
2021/07/24 11:23:17;;;;;;;11.97;10.73;;;32.30;80.90;;;;;;5014195;28;20936;-64
2021/07/24 11:25:46;;;;;;;13.43;10.93;;;32.20;82.20;;;;;;5014641;28;20464;-64
2021/07/24 11:28:21;;;;;;;11.50;10.60;;;32.10;80.50;;;;;;5014768;28;20452;-64
2021/07/24 11:30:59;;;;;;;11.33;10.23;;;32.00;80.70;;;;;;5014370;28;20499;-64
2021/07/24 11:33:28;;;;;;;11.53;10.50;;;31.60;82.30;;;;;;5014465;28;20461;-64
2021/07/24 11:36:02;;;;;;;12.20;11.10;;;31.30;83.90;;;;;;5014477;28;20495;-64
2021/07/24 11:38:28;;;;;;;11.87;10.70;;;31.20;83.70;;;;;;5014414;28;20461;-64
2021/07/24 11:41:04;;;;;;;11.80;10.60;;;31.30;86.10;;;;;;5014270;28;20476;-64
2021/07/24 11:43:31;;;;;;;12.20;11.13;;;31.30;85.60;;;;;;5014358;28;20433;-64
2021/07/24 11:46:10;;;;;;;10.43;9.53;;;31.00;85.70;;;;;;5014146;28;20453;-64
2021/07/24 11:48:38;;;;;;;13.23;9.90;;;30.90;86.20;;;;;;5013036;28;20927;-64
2021/07/24 11:51:07;;;;;;;10.53;9.53;;;30.30;85.70;;;;;;5014005;28;20569;-64
2021/07/24 11:53:34;;;;;;;11.70;9.10;;;30.10;86.30;;;;;;5014016;28;20527;-64
2021/07/24 11:56:02;;;;;;;12.13;8.70;;;29.90;86.30;;;;;;5013937;28;20968;-64
2021/07/24 11:58:28;;;;;;;11.30;10.23;;;29.60;85.10;;;;;;5014924;28;20792;-64
2021/07/24 12:00:56;;;;;;;8.73;7.90;;;29.30;85.10;;;;;;5013546;28;21010;-63
2021/07/24 12:03:26;;;;;;;9.73;7.60;;;29.20;84.00;;;;;;5014391;28;20475;-63
2021/07/24 12:05:57;;;;;;;8.27;7.47;;;29.10;84.10;;;;;;5014642;28;20441;-64
2021/07/24 12:08:26;;;;;;;8.60;7.90;;;29.30;85.50;;;;;;5014130;28;20500;-64
2021/07/24 12:10:54;;;;;;;9.33;8.43;;;29.40;86.20;;;;;;5014086;28;20480;-64
2021/07/24 12:13:22;;;;;;;8.60;7.80;;;29.50;85.80;;;;;;5013647;28;20939;-64
2021/07/24 12:16:04;;;;;;;9.63;8.70;;;30.00;85.90;;;;;;5013898;28;20464;-64
2021/07/24 12:18:39;;;;;;;9.20;8.37;;;30.30;85.10;;;;;;5013933;28;20452;-64
2021/07/24 12:21:07;;;;;;;10.00;8.40;;;30.70;84.20;;;;;;5013965;28;20472;-64
2021/07/24 12:23:34;;;;;;;8.73;7.80;;;31.20;81.10;;;;;;5013898;28;20503;-64
2021/07/24 12:26:13;;;;;;;8.63;7.83;;;31.50;82.30;;;;;;5013799;28;20460;-64
2021/07/24 12:28:40;;;;;;;9.03;8.23;;;31.40;79.60;;;;;;5013821;28;20461;-64
2021/07/24 12:31:24;;;;;;;9.90;8.17;;;31.40;79.10;;;;;;5013774;28;20480;-64
2021/07/24 12:33:54;;;;;;;8.70;7.93;;;31.10;81.10;;;;;;5013836;28;20465;-64
2021/07/24 12:36:23;;;;;;;8.87;7.97;;;31.20;81.50;;;;;;5013458;28;20959;-64
2021/07/24 12:38:51;;;;;;;10.00;8.97;;;31.20;80.60;;;;;;5013653;28;20456;-64
2021/07/24 12:41:18;;;;;;;9.07;8.17;;;31.10;81.00;;;;;;5013556;28;20477;-64
2021/07/24 12:44:04;;;;;;;8.80;7.90;;;31.00;80.70;;;;;;5014979;28;20460;-64
2021/07/24 12:46:31;;;;;;;8.37;7.60;;;30.80;82.10;;;;;;5014175;28;20457;-64
2021/07/24 12:48:59;;;;;;;8.87;8.00;;;30.70;81.80;;;;;;5015903;28;20461;-64
2021/07/24 12:51:29;;;;;;;9.50;8.60;;;30.70;83.40;;;;;;5014015;28;20500;-64
2021/07/24 12:54:11;;;;;;;9.23;8.53;;;30.70;83.30;;;;;;5013587;28;20469;-64
2021/07/24 12:56:39;;;;;;;11.20;9.90;;;31.10;83.40;;;;;;5013468;28;20440;-64
2021/07/24 12:59:07;;;;;;;9.67;8.67;;;31.40;83.60;;;;;;5013170;28;20468;-64
2021/07/24 13:01:33;;;;;;;11.53;9.67;;;31.40;80.70;;;;;;5017001;28;20516;-64
2021/07/24 13:04:01;;;;;;;10.10;9.00;;;31.30;80.70;;;;;;5018174;28;20452;-66
2021/07/24 13:06:31;;;;;;;8.83;8.13;;;31.40;81.00;;;;;;5017858;28;20457;-67
2021/07/24 13:08:58;;;;;;;9.63;8.63;;;31.10;79.80;;;;;;5016904;28;20457;-66
2021/07/24 13:11:25;;;;;;;9.93;8.60;;;30.80;80.50;;;;;;5016902;28;20477;-66
2021/07/24 13:13:52;;;;;;;9.63;8.80;;;30.60;81.10;;;;;;5016806;28;20480;-66
2021/07/24 13:16:19;;;;;;;9.53;8.70;;;30.60;82.70;;;;;;5016887;28;20456;-66
2021/07/24 13:18:46;;;;;;;8.67;7.87;;;30.50;82.80;;;;;;5016630;28;20489;-66
2021/07/24 13:21:15;;;;;;;12.13;8.77;;;30.30;82.50;;;;;;5016548;28;20477;-66
2021/07/24 13:23:42;;;;;;;8.73;8.00;;;30.10;82.20;;;;;;5016716;28;20456;-66
2021/07/24 13:28:49;;;;;;;9.60;8.70;;;29.60;84.60;;;;;;5016000;28;20447;-66
2021/07/24 13:31:16;;;;;;;8.63;7.90;;;29.50;85.70;;;;;;5016387;28;20468;-66
2021/07/24 13:33:43;;;;;;;8.40;7.60;;;29.40;87.30;;;;;;5016285;28;20449;-66
2021/07/24 13:36:12;;;;;;;9.40;8.50;;;29.40;86.30;;;;;;5016356;28;20464;-66
2021/07/24 13:38:41;;;;;;;10.47;8.70;;;29.30;87.30;;;;;;5016315;28;20468;-66
2021/07/24 13:41:07;;;;;;;8.90;7.90;;;29.40;88.80;;;;;;5016160;28;20481;-66
2021/07/24 13:43:34;;;;;;;9.03;8.27;;;29.20;87.80;;;;;;5016176;28;20464;-66
2021/07/24 13:46:01;;;;;;;9.17;8.13;;;29.30;86.80;;;;;;5016034;28;20456;-65
2021/07/24 13:48:27;;;;;;;8.67;7.97;;;29.50;87.70;;;;;;5015684;28;20863;-65
2021/07/24 13:50:54;;;;;;;9.13;8.33;;;29.70;85.30;;;;;;5016218;28;20485;-64
2021/07/24 13:53:21;;;;;;;9.50;7.90;;;30.00;85.20;;;;;;5015993;28;20457;-65
2021/07/24 13:55:50;;;;;;;8.17;7.47;;;30.50;85.60;;;;;;5016451;28;20483;-64
2021/07/24 13:58:16;;;;;;;7.67;7.07;;;30.80;84.80;;;;;;5016109;28;20925;-65
2021/07/24 14:00:43;;;;;;;9.73;8.90;;;31.10;83.80;;;;;;5015792;28;20488;-65
2021/07/24 14:03:10;;;;;;;9.00;8.20;;;31.20;82.10;;;;;;5015555;28;20860;-64
2021/07/24 14:05:37;;;;;;;9.73;8.00;;;31.40;81.70;;;;;;5015750;28;20452;-65
2021/07/24 14:08:04;;;;;;;8.87;8.07;;;31.50;80.40;;;;;;5015639;28;20456;-65
2021/07/24 14:10:31;;;;;;;10.80;8.10;;;31.40;80.00;;;;;;5015644;28;20437;-65
2021/07/24 14:12:59;;;;;;;9.27;8.47;;;31.40;80.30;;;;;;5015012;28;20464;-65
2021/07/24 14:15:26;;;;;;;9.23;8.50;;;31.20;81.20;;;;;;5015502;28;20473;-65
2021/07/24 14:17:52;;;;;;;8.57;7.77;;;31.00;81.80;;;;;;5015614;28;20795;-64
2021/07/24 14:20:19;;;;;;;10.07;7.97;;;31.10;81.40;;;;;;5015473;28;20480;-65
2021/07/24 14:22:46;;;;;;;9.90;9.00;;;31.10;79.60;;;;;;5015509;28;20531;-65
2021/07/24 14:25:13;;;;;;;8.67;7.90;;;31.40;81.30;;;;;;5015323;28;20449;-65
2021/07/24 14:27:40;;;;;;;8.63;7.87;;;31.60;82.00;;;;;;5015325;28;20582;-65
2021/07/24 14:30:09;;;;;;;9.37;8.50;;;31.90;81.30;;;;;;5015308;28;20457;-64
2021/07/24 14:32:36;;;;;;;9.13;8.37;;;31.70;79.10;;;;;;5016331;28;20860;-68
2021/07/24 14:35:03;;;;;;;8.97;7.50;;;31.60;80.40;;;;;;5015239;28;20840;-69
2021/07/24 14:37:29;;;;;;;8.73;7.93;;;31.70;80.50;;;;;;5015204;28;20461;-69
2021/07/24 14:39:56;;;;;;;7.73;7.10;;;31.70;77.80;;;;;;5014768;28;20506;-69
2021/07/24 14:42:26;;;;;;;8.50;7.70;;;31.70;80.50;;;;;;5014971;28;20476;-69
2021/07/24 14:44:53;;;;;;;8.77;7.60;;;31.60;82.00;;;;;;5016701;28;20433;-67
2021/07/24 14:47:21;;;;;;;8.43;7.53;;;31.70;85.20;;;;;;5016960;28;20539;-69
2021/07/24 14:49:48;;;;;;;9.90;7.90;;;32.00;84.00;;;;;;5015154;28;20453;-68
2021/07/24 14:52:15;;;;;;;10.40;7.87;;;32.20;82.60;;;;;;5014888;28;20491;-68
2021/07/24 14:54:41;;;;;;;8.73;7.90;;;32.30;84.20;;;;;;5014927;28;20511;-68
2021/07/24 14:57:08;;;;;;;9.47;8.67;;;32.30;86.40;;;;;;5014785;28;20457;-69
2021/07/24 14:59:35;;;;;;;8.87;8.17;;;32.40;88.00;;;;;;5015000;28;20452;-70
2021/07/24 15:02:01;;;;;;;10.93;8.37;;;32.50;88.30;;;;;;5014754;28;20484;-69
2021/07/24 15:04:29;;;;;;;9.20;8.30;;;32.40;88.70;;;;;;5014634;28;20448;-70
2021/07/24 15:06:56;;;;;;;8.60;7.80;;;32.30;90.00;;;;;;5014762;28;20444;-70
2021/07/24 15:09:23;;;;;;;9.70;8.80;;;32.20;89.80;;;;;;5014646;28;20465;-68
2021/07/24 15:11:50;;;;;;;8.73;8.03;;;32.00;88.60;;;;;;5014595;28;20475;-69
2021/07/24 15:14:16;;;;;;;9.57;8.67;;;32.00;90.20;;;;;;5014719;28;20460;-69
2021/07/24 15:16:43;;;;;;;8.97;8.27;;;32.00;88.70;;;;;;5014466;28;20507;-69
2021/07/24 15:19:10;;;;;;;10.53;9.53;;;31.90;89.70;;;;;;5014498;28;20445;-69
2021/07/24 15:21:38;;;;;;;8.40;7.70;;;31.80;89.10;;;;;;5014405;28;20591;-70
2021/07/24 15:36:54;;;;;;;7.53;6.80;;;31.60;89.00;;;;;;5047637;28;20572;-62
2021/07/24 15:39:21;;;;;;;7.57;6.97;;;32.20;85.60;;;;;;5047530;28;20455;-63
2021/07/24 15:41:48;;;;;;;7.57;6.90;;;32.30;85.50;;;;;;5048474;28;20455;-63
2021/07/24 15:44:15;;;;;;;7.60;7.00;;;32.10;84.20;;;;;;5047367;28;20474;-63
2021/07/24 15:46:41;;;;;;;7.67;7.07;;;31.90;85.50;;;;;;5047015;28;20481;-64
2021/07/24 15:49:08;;;;;;;8.07;6.77;;;31.50;85.20;;;;;;5047502;28;20439;-64
2021/07/24 15:51:35;;;;;;;7.60;6.90;;;31.40;88.40;;;;;;5047500;28;20440;-63
2021/07/24 15:54:03;;;;;;;7.30;6.70;;;31.30;87.80;;;;;;5047368;28;20458;-63
2021/07/24 15:56:34;;;;;;;7.03;6.43;;;31.20;88.40;;;;;;5046956;28;20983;-64
2021/07/24 15:59:01;;;;;;;7.90;7.13;;;31.20;88.30;;;;;;5047212;28;20488;-63
2021/07/24 16:01:28;;;;;;;7.50;6.90;;;31.20;86.90;;;;;;5047144;28;20447;-64
2021/07/24 16:03:54;;;;;;;8.30;7.60;;;31.20;88.00;;;;;;5046930;28;20843;-63
2021/07/24 16:06:21;;;;;;;7.47;6.97;;;31.10;87.00;;;;;;5047054;28;20483;-63
2021/07/24 16:08:48;;;;;;;8.10;7.50;;;31.00;86.90;;;;;;5047126;28;20435;-63
2021/07/24 16:11:21;;;;;;;6.57;6.07;;;30.90;87.30;;;;;;5047241;28;20455;-64
2021/07/24 16:13:48;;;;;;;7.03;6.50;;;30.80;88.60;;;;;;5047057;28;20443;-63
2021/07/24 16:16:20;;;;;;;7.90;7.30;;;30.50;88.00;;;;;;5046747;28;20475;-62
2021/07/24 16:18:47;;;;;;;7.67;6.40;;;30.30;89.50;;;;;;5047111;28;20467;-63
2021/07/24 16:21:14;;;;;;;7.73;7.10;;;30.20;90.00;;;;;;5046914;28;20459;-63
2021/07/24 16:23:40;;;;;;;7.57;6.80;;;30.00;90.90;;;;;;5046785;28;20452;-63
2021/07/24 16:26:08;;;;;;;8.77;6.40;;;30.00;90.80;;;;;;5046820;28;20487;-64
2021/07/24 16:28:37;;;;;;;8.03;7.23;;;29.70;90.90;;;;;;5047859;28;20517;-63
2021/07/24 16:31:04;;;;;;;7.30;6.80;;;29.50;90.70;;;;;;5047223;28;20939;-63
2021/07/24 16:33:31;;;;;;;7.17;6.63;;;29.40;91.30;;;;;;5047941;28;20456;-63
2021/07/24 16:35:58;;;;;;;7.00;6.40;;;29.30;91.40;;;;;;5044287;28;20459;-63
2021/07/24 16:38:25;;;;;;;6.40;6.00;;;29.20;91.30;;;;;;5035249;28;20509;-62
2021/07/24 16:40:52;;;;;;;6.63;6.23;;;29.10;91.20;;;;;;5034932;28;20455;-63
2021/07/24 16:43:19;;;;;;;7.60;6.10;;;29.10;91.60;;;;;;5034096;28;20964;-62
2021/07/24 16:45:47;;;;;;;6.43;5.93;;;29.00;91.90;;;;;;5034861;28;20567;-63
2021/07/24 16:48:14;;;;;;;7.80;6.80;;;29.00;92.00;;;;;;5034850;28;20441;-63
2021/07/24 16:50:40;;;;;;;7.03;6.53;;;29.00;92.00;;;;;;5035922;28;20931;-62
2021/07/24 16:53:07;;;;;;;6.93;6.37;;;29.00;92.40;;;;;;5034285;28;20456;-63
2021/07/24 16:55:34;;;;;;;7.27;6.57;;;28.90;92.90;;;;;;5034371;28;20840;-63